createdAt,value
2022-10-09T00:00:05.080Z,3.20
2022-10-09T00:15:05.212Z,2.80
2022-10-09T00:30:05.307Z,2.40
2022-10-09T00:45:05.411Z,3.00
2022-10-09T01:00:05.497Z,3.30
2022-10-09T01:15:06.878Z,3.10
2022-10-09T01:30:06.964Z,3.20
2022-10-09T01:45:07.097Z,3.80
2022-10-09T02:00:07.196Z,3.80
2022-10-09T02:15:07.334Z,3.60
2022-10-09T02:30:07.421Z,3.40
2022-10-09T02:45:08.018Z,3.00
2022-10-09T03:00:08.617Z,4.00
2022-10-09T03:15:08.732Z,3.50
2022-10-09T03:30:08.833Z,4.00
2022-10-09T03:45:09.465Z,3.50
2022-10-09T04:00:10.090Z,4.30
2022-10-09T04:15:10.187Z,3.90
2022-10-09T04:30:10.264Z,2.70
2022-10-09T04:45:10.988Z,3.30
2022-10-09T05:00:11.023Z,3.60
2022-10-09T05:15:11.613Z,3.70
2022-10-09T05:30:12.204Z,4.10
2022-10-09T05:45:12.337Z,4.30
2022-10-09T06:00:12.516Z,6.20
2022-10-09T06:15:13.057Z,6.00
2022-10-09T06:30:13.195Z,6.10
2022-10-09T06:45:13.474Z,6.00
2022-10-09T07:00:13.554Z,5.80
2022-10-09T07:15:14.178Z,6.50
2022-10-09T07:30:14.781Z,6.50
2022-10-09T07:45:14.888Z,4.90
2022-10-09T08:00:15.013Z,4.40
2022-10-09T08:15:15.116Z,3.70
2022-10-09T08:30:15.245Z,3.20
2022-10-09T08:45:15.405Z,4.40
2022-10-09T09:00:15.626Z,4.10
2022-10-09T09:15:15.683Z,3.20
2022-10-09T09:30:15.760Z,11.90
2022-10-09T09:45:15.898Z,2.30
2022-10-09T10:00:16.024Z,6.20
2022-10-09T10:15:16.123Z,2.40
2022-10-09T10:30:16.225Z,2.60
2022-10-09T10:45:16.298Z,1.80
2022-10-09T11:00:17.088Z,1.70
2022-10-09T11:15:17.391Z,1.60
2022-10-09T11:30:17.255Z,1.70
2022-10-09T11:45:17.893Z,1.50
2022-10-09T12:00:18.565Z,1.50
2022-10-09T12:15:18.615Z,1.70
2022-10-09T12:30:18.708Z,1.50
2022-10-09T12:45:20.249Z,1.30
2022-10-09T13:00:21.609Z,1.10
2022-10-09T13:15:22.101Z,1.40
2022-10-09T13:30:22.211Z,1.40
2022-10-09T13:45:23.784Z,1.50
2022-10-09T14:00:23.836Z,1.60
2022-10-09T14:15:25.669Z,1.30
2022-10-09T14:30:25.594Z,1.30
2022-10-09T14:45:25.920Z,1.20
2022-10-09T15:00:26.067Z,1.30
2022-10-09T15:15:30.305Z,1.40
2022-10-09T15:30:31.218Z,1.20
2022-10-09T15:45:31.805Z,1.20
2022-10-09T16:00:32.982Z,1.20
2022-10-09T16:15:32.845Z,1.50
2022-10-09T16:30:34.425Z,2.40
2022-10-09T16:45:34.548Z,3.40
2022-10-09T17:00:34.729Z,3.60
2022-10-09T17:15:35.412Z,3.90
2022-10-09T17:30:36.004Z,4.50
2022-10-09T17:45:39.137Z,4.70
2022-10-09T18:00:39.802Z,5.70
2022-10-09T18:15:39.788Z,5.90
2022-10-09T18:30:39.961Z,6.50
2022-10-09T18:45:39.998Z,7.40
2022-10-09T19:00:40.333Z,9.00
2022-10-09T19:15:40.314Z,7.10
2022-10-09T19:30:40.455Z,8.90
2022-10-09T19:45:41.904Z,8.90
2022-10-09T20:00:42.194Z,8.90
2022-10-09T20:15:42.203Z,8.70
2022-10-09T20:30:43.834Z,8.00
2022-10-09T20:45:43.580Z,7.20
2022-10-09T21:00:43.705Z,6.80
2022-10-09T21:15:43.859Z,6.80
2022-10-09T21:30:43.951Z,6.80
2022-10-09T21:45:44.080Z,5.50
2022-10-09T22:00:44.147Z,5.50
2022-10-09T22:15:48.841Z,5.20
2022-10-09T22:30:49.392Z,4.90
2022-10-09T22:45:49.560Z,4.90
2022-10-09T23:00:49.672Z,4.80
2022-10-09T23:15:50.176Z,4.60
2022-10-09T23:30:50.299Z,4.60
2022-10-09T23:45:50.478Z,4.60
